Time;durP1;ratioP1;P1;durP2;ratioP2;P2;SDS_P1;SDS_P2;PMS_P1;PMS_P2;Temp;Humidity;BMP_temperature;BMP_pressure;BME280_temperature;BME280_humidity;BME280_pressure;Samples;Min_cycle;Max_cycle;Signal;HPM_P1;HPM_P2
2023/10/01 00:02:09;;;;;;;14.88;4.80;;;15.10;99.90;;;;;;4937410;29;20138;-82
2023/10/01 00:04:55;;;;;;;23.75;4.72;;;15.10;99.90;;;;;;4923257;29;20397;-83
2023/10/01 00:07:42;;;;;;;13.55;3.85;;;15.10;99.90;;;;;;4937306;29;20504;-86
2023/10/01 00:10:28;;;;;;;19.20;4.38;;;15.10;99.90;;;;;;4937169;29;20079;-84
2023/10/01 00:13:15;;;;;;;14.43;4.68;;;15.10;99.90;;;;;;4952715;29;20534;-82
2023/10/01 00:16:02;;;;;;;14.45;3.92;;;15.10;99.90;;;;;;4936372;29;20063;-81
2023/10/01 00:18:48;;;;;;;15.45;3.25;;;15.10;99.90;;;;;;4937070;29;20051;-80
2023/10/01 00:21:34;;;;;;;11.98;3.30;;;15.10;99.90;;;;;;4952163;28;20051;-78
2023/10/01 00:24:20;;;;;;;12.40;3.90;;;15.10;99.90;;;;;;4937334;29;20408;-76
2023/10/01 00:27:09;;;;;;;12.48;3.65;;;15.10;99.90;;;;;;4936663;29;20059;-77
2023/10/01 00:29:55;;;;;;;14.75;4.65;;;15.10;99.90;;;;;;4936960;29;20106;-81
2023/10/01 00:32:41;;;;;;;14.32;3.47;;;15.10;99.90;;;;;;4936381;29;20077;-85
2023/10/01 00:35:29;;;;;;;13.25;3.42;;;15.10;99.90;;;;;;4924063;29;20043;-82
2023/10/01 00:38:16;;;;;;;15.93;3.75;;;15.10;99.90;;;;;;4937240;29;20495;-76
2023/10/01 00:41:03;;;;;;;13.15;4.22;;;15.10;99.90;;;;;;4937492;29;20059;-81
2023/10/01 00:43:49;;;;;;;16.23;3.58;;;15.10;99.90;;;;;;4936122;29;20110;-74
2023/10/01 00:46:35;;;;;;;13.88;4.53;;;15.10;99.90;;;;;;4951406;29;20057;-76
2023/10/01 00:49:22;;;;;;;13.45;3.50;;;15.10;99.90;;;;;;4952115;29;20055;-76
2023/10/01 00:52:10;;;;;;;15.57;4.20;;;15.10;99.90;;;;;;4936763;29;20050;-74
2023/10/01 00:54:56;;;;;;;22.48;4.47;;;15.10;99.90;;;;;;4936545;29;20062;-79
2023/10/01 00:57:42;;;;;;;11.85;3.70;;;15.10;99.90;;;;;;4935451;29;20507;-76
2023/10/01 01:00:28;;;;;;;10.40;3.63;;;15.00;99.90;;;;;;4936477;29;20055;-82
2023/10/01 01:03:22;;;;;;;14.57;3.92;;;15.00;99.90;;;;;;4935416;29;20069;-79
2023/10/01 01:06:17;;;;;;;11.63;3.55;;;15.00;99.90;;;;;;4936500;29;20059;-74
2023/10/01 01:09:10;;;;;;;27.70;6.40;;;15.00;99.90;;;;;;4936330;29;20110;-74
2023/10/01 01:11:56;;;;;;;18.83;4.47;;;15.00;99.90;;;;;;4922591;29;20122;-83
2023/10/01 01:14:44;;;;;;;19.13;4.47;;;15.00;99.90;;;;;;4936287;29;20138;-74
2023/10/01 01:17:31;;;;;;;16.85;4.88;;;15.00;99.90;;;;;;4935936;29;20052;-76
2023/10/01 01:20:19;;;;;;;17.83;5.00;;;15.00;99.90;;;;;;4953356;28;20086;-75
2023/10/01 01:23:06;;;;;;;16.13;4.88;;;15.00;99.90;;;;;;4936683;29;20507;-78
2023/10/01 01:25:54;;;;;;;16.05;4.85;;;15.00;99.90;;;;;;4935918;29;20073;-76
2023/10/01 01:28:41;;;;;;;15.35;4.93;;;15.00;99.90;;;;;;4953061;29;20108;-73
2023/10/01 01:31:28;;;;;;;13.85;5.32;;;15.00;99.90;;;;;;4953457;29;20448;-76
2023/10/01 01:34:14;;;;;;;20.15;5.47;;;14.90;99.90;;;;;;4935812;29;20087;-75
2023/10/01 01:37:06;;;;;;;16.25;4.78;;;15.00;99.90;;;;;;4935751;29;20396;-74
2023/10/01 01:39:54;;;;;;;19.65;5.53;;;15.00;99.90;;;;;;4922400;29;20463;-74
2023/10/01 01:42:40;;;;;;;13.02;4.85;;;14.90;99.90;;;;;;4936189;29;20475;-74
2023/10/01 01:45:27;;;;;;;14.45;5.63;;;15.00;99.90;;;;;;4935923;29;20055;-74
2023/10/01 01:51:17;;;;;;;28.77;8.07;;;15.00;99.90;;;;;;4935848;29;20514;-76
2023/10/01 01:54:03;;;;;;;13.60;4.97;;;15.00;99.90;;;;;;4935988;29;20522;-75
2023/10/01 01:56:51;;;;;;;12.18;5.25;;;15.00;99.90;;;;;;4953163;28;20055;-74
2023/10/01 01:59:38;;;;;;;17.42;6.32;;;15.00;99.90;;;;;;4952320;29;20515;-74
2023/10/01 02:02:24;;;;;;;21.90;5.55;;;14.90;99.90;;;;;;4935672;29;20055;-75
2023/10/01 02:05:10;;;;;;;18.98;5.80;;;15.00;99.90;;;;;;4922352;29;20101;-75
2023/10/01 02:08:06;;;;;;;18.95;5.78;;;15.00;99.90;;;;;;4922033;29;20150;-83
2023/10/01 02:10:55;;;;;;;15.00;4.93;;;15.00;99.90;;;;;;4936113;29;20531;-82
2023/10/01 02:13:45;;;;;;;17.60;6.57;;;15.00;99.90;;;;;;4935955;29;20051;-80
2023/10/01 02:16:38;;;;;;;14.30;5.53;;;15.00;99.90;;;;;;4935507;29;20149;-80
2023/10/01 02:19:26;;;;;;;15.70;6.00;;;15.00;99.90;;;;;;4921492;29;20051;-75
2023/10/01 02:22:12;;;;;;;13.43;5.72;;;15.00;99.90;;;;;;4921664;29;20594;-78
2023/10/01 02:25:00;;;;;;;17.30;5.63;;;15.00;99.90;;;;;;4935797;29;20059;-76
2023/10/01 02:28:06;;;;;;;13.63;5.20;;;15.00;99.90;;;;;;4936334;29;20081;-80
2023/10/01 02:31:00;;;;;;;17.30;5.10;;;15.00;99.90;;;;;;4926874;29;20134;-74
2023/10/01 02:33:56;;;;;;;17.75;6.10;;;15.00;99.90;;;;;;4956978;28;20059;-76
2023/10/01 02:36:42;;;;;;;9.57;5.03;;;15.00;99.90;;;;;;4938501;29;20074;-75
2023/10/01 02:39:28;;;;;;;13.18;5.60;;;15.00;99.90;;;;;;4956221;28;20082;-81
2023/10/01 02:42:21;;;;;;;22.58;6.55;;;15.00;99.90;;;;;;4955638;29;20057;-81
2023/10/01 02:45:30;;;;;;;19.92;5.85;;;15.00;99.90;;;;;;4938996;29;20090;-77
2023/10/01 02:48:16;;;;;;;22.40;6.13;;;15.00;99.90;;;;;;4937486;29;20148;-80
2023/10/01 02:51:32;;;;;;;13.93;5.60;;;15.00;99.90;;;;;;4939006;29;20066;-76
2023/10/01 02:54:09;;;;;;;15.98;6.63;;;15.00;99.90;;;;;;4938399;29;20051;-81
2023/10/01 02:57:13;;;;;;;16.35;6.55;;;15.00;99.90;;;;;;4938892;29;20463;-76
2023/10/01 03:03:00;;;;;;;12.30;6.18;;;15.00;99.90;;;;;;4955774;28;20061;-77
2023/10/01 03:05:49;;;;;;;16.80;6.80;;;14.90;99.90;;;;;;4954228;29;20097;-76
2023/10/01 03:11:40;;;;;;;16.63;7.13;;;15.00;99.90;;;;;;4938540;29;20482;-80
2023/10/01 03:14:26;;;;;;;17.27;7.30;;;15.00;99.90;;;;;;4955295;29;20051;-79
2023/10/01 03:17:18;;;;;;;22.55;8.13;;;15.00;99.90;;;;;;4938690;29;20058;-77
2023/10/01 03:26:08;;;;;;;14.85;8.57;;;15.00;99.90;;;;;;4938405;29;20105;-76
2023/10/01 03:32:26;;;;;;;23.15;8.90;;;14.90;99.90;;;;;;4938092;29;20137;-83
2023/10/01 03:35:07;;;;;;;30.27;9.60;;;14.90;99.90;;;;;;4936871;29;20050;-81
2023/10/01 03:38:14;;;;;;;20.20;9.13;;;14.90;99.90;;;;;;4937371;29;20055;-80
2023/10/01 03:41:02;;;;;;;23.27;9.05;;;14.90;99.90;;;;;;4923203;29;20082;-83
2023/10/01 03:44:07;;;;;;;19.23;9.93;;;14.90;99.90;;;;;;4937656;29;20066;-77
2023/10/01 03:46:55;;;;;;;28.33;9.05;;;14.90;99.90;;;;;;4939760;29;20051;-75
2023/10/01 03:49:44;;;;;;;21.40;9.40;;;14.90;99.90;;;;;;4937418;29;20063;-74
2023/10/01 03:52:30;;;;;;;22.80;9.40;;;14.90;99.90;;;;;;4923955;29;20106;-75
2023/10/01 03:55:28;;;;;;;26.58;10.18;;;14.90;99.90;;;;;;4952911;29;20563;-80
2023/10/01 03:58:18;;;;;;;19.75;9.18;;;14.90;99.90;;;;;;4925303;29;20054;-80
2023/10/01 04:01:25;;;;;;;20.58;9.15;;;14.90;99.90;;;;;;4954234;29;20150;-76
2023/10/01 04:04:11;;;;;;;19.05;8.70;;;14.90;99.90;;;;;;4937084;29;20086;-78
2023/10/01 04:07:00;;;;;;;25.50;10.57;;;14.90;99.90;;;;;;4937349;29;20065;-78
2023/10/01 04:09:46;;;;;;;22.88;9.77;;;15.00;99.90;;;;;;4954711;28;20142;-73
2023/10/01 04:12:33;;;;;;;21.67;10.07;;;15.00;99.90;;;;;;4925157;29;20471;-77
2023/10/01 04:15:27;;;;;;;22.67;9.13;;;15.00;99.90;;;;;;4937478;29;20406;-86
2023/10/01 04:23:49;;;;;;;23.85;8.77;;;15.00;99.90;;;;;;4936812;29;20114;-86
2023/10/01 04:26:35;;;;;;;20.65;8.88;;;15.10;99.90;;;;;;4936809;29;20078;-80
2023/10/01 04:29:24;;;;;;;23.95;10.38;;;15.10;99.90;;;;;;4937216;29;20134;-86
2023/10/01 04:32:12;;;;;;;19.55;9.02;;;15.10;99.90;;;;;;4936727;29;20043;-80
2023/10/01 04:34:58;;;;;;;22.65;8.93;;;15.10;99.90;;;;;;4936862;29;20519;-87
2023/10/01 04:37:47;;;;;;;25.27;9.77;;;15.10;99.90;;;;;;4936710;29;20134;-80
2023/10/01 04:40:39;;;;;;;22.90;8.75;;;15.10;99.90;;;;;;4936784;29;20055;-80
2023/10/01 04:43:34;;;;;;;24.00;10.40;;;15.20;99.90;;;;;;4936746;29;20055;-79
2023/10/01 04:46:21;;;;;;;;;;;15.10;99.90;;;;;;4937157;29;20051;-76
2023/10/01 04:52:12;;;;;;;25.60;9.67;;;15.10;99.90;;;;;;4936431;29;20527;-79
2023/10/01 04:54:58;;;;;;;25.42;9.80;;;15.10;99.90;;;;;;4923150;29;20299;-86
2023/10/01 04:57:45;;;;;;;18.67;8.80;;;15.10;99.90;;;;;;4935508;29;20051;-80
2023/10/01 05:00:31;;;;;;;26.80;10.88;;;15.10;99.90;;;;;;4922962;29;20098;-76
2023/10/01 05:03:17;;;;;;;22.70;9.77;;;15.10;99.90;;;;;;4923563;29;20142;-85
2023/10/01 05:06:03;;;;;;;26.10;10.70;;;15.10;99.90;;;;;;4937051;29;20057;-77
2023/10/01 05:08:55;;;;;;;20.98;9.98;;;15.10;99.90;;;;;;4936405;29;20055;-75
2023/10/01 05:11:42;;;;;;;28.75;10.02;;;15.10;99.90;;;;;;4935818;29;20055;-84
2023/10/01 05:14:28;;;;;;;24.80;10.77;;;15.10;99.90;;;;;;4936323;29;20060;-77
2023/10/01 05:17:16;;;;;;;25.85;11.73;;;15.00;99.90;;;;;;4935679;29;20090;-81
2023/10/01 05:20:08;;;;;;;29.25;12.05;;;15.00;99.90;;;;;;4924080;28;20168;-77
2023/10/01 05:22:57;;;;;;;19.95;10.80;;;15.00;99.90;;;;;;4923893;29;20563;-77
2023/10/01 05:25:45;;;;;;;26.42;12.43;;;15.00;99.90;;;;;;4923507;29;20557;-79
2023/10/01 05:28:31;;;;;;;24.98;11.63;;;15.00;99.90;;;;;;4938197;29;20071;-74
2023/10/01 05:31:24;;;;;;;28.20;11.50;;;15.00;99.90;;;;;;4927388;29;20055;-81
2023/10/01 05:34:11;;;;;;;22.88;10.82;;;14.90;99.90;;;;;;4941978;29;20051;-76
2023/10/01 05:37:08;;;;;;;24.52;11.23;;;14.90;99.90;;;;;;4941189;29;20140;-78
2023/10/01 05:39:57;;;;;;;26.10;11.18;;;14.90;99.90;;;;;;4956199;28;20051;-78
2023/10/01 05:42:47;;;;;;;25.67;11.40;;;14.90;99.90;;;;;;4935653;29;20562;-80
2023/10/01 05:45:39;;;;;;;19.27;10.85;;;14.90;99.90;;;;;;4923365;29;20047;-83
2023/10/01 05:48:25;;;;;;;24.02;11.82;;;14.90;99.90;;;;;;4936139;29;20095;-78
2023/10/01 05:51:15;;;;;;;21.25;10.90;;;14.90;99.90;;;;;;4953075;28;20063;-79
2023/10/01 05:54:01;;;;;;;23.88;11.60;;;14.90;99.90;;;;;;4935919;29;20865;-80
2023/10/01 05:56:49;;;;;;;24.88;10.60;;;14.90;99.90;;;;;;4938684;29;20047;-82
2023/10/01 05:59:35;;;;;;;24.25;11.38;;;14.90;99.90;;;;;;4953159;28;20079;-79
2023/10/01 06:02:41;;;;;;;31.48;12.15;;;14.90;99.90;;;;;;4935822;29;20496;-83
2023/10/01 06:05:50;;;;;;;31.90;12.88;;;14.90;99.90;;;;;;4957307;28;20145;-80
2023/10/01 06:08:44;;;;;;;27.20;12.18;;;14.90;99.90;;;;;;4939141;29;20055;-81
2023/10/01 06:11:41;;;;;;;27.13;11.55;;;14.80;99.90;;;;;;4939049;29;20404;-73
2023/10/01 06:14:39;;;;;;;28.05;11.65;;;14.80;99.90;;;;;;4942335;29;20149;-83
2023/10/01 06:17:28;;;;;;;28.30;11.82;;;14.80;99.90;;;;;;4939624;29;20070;-82
2023/10/01 06:20:23;;;;;;;28.45;13.13;;;14.80;99.90;;;;;;4938755;28;20067;-82
2023/10/01 06:23:10;;;;;;;30.30;12.90;;;14.80;99.90;;;;;;4939401;29;20063;-85
2023/10/01 06:25:58;;;;;;;23.55;11.60;;;14.80;99.90;;;;;;4939168;29;20459;-82
2023/10/01 06:28:44;;;;;;;24.75;11.38;;;14.80;99.90;;;;;;4938311;29;20113;-77
2023/10/01 06:31:47;;;;;;;28.60;11.95;;;14.80;99.90;;;;;;4956098;28;20047;-74
2023/10/01 06:34:34;;;;;;;26.35;12.15;;;14.80;99.90;;;;;;4925807;29;20047;-74
2023/10/01 06:37:20;;;;;;;28.88;13.20;;;14.90;99.90;;;;;;4956333;28;20054;-76
2023/10/01 06:40:29;;;;;;;24.48;11.80;;;14.90;99.90;;;;;;4956119;28;20055;-76
2023/10/01 06:43:15;;;;;;;31.95;12.60;;;14.90;99.90;;;;;;4937628;29;20102;-77
2023/10/01 06:46:01;;;;;;;29.25;12.18;;;15.00;99.90;;;;;;4938426;29;20067;-78
2023/10/01 06:48:48;;;;;;;26.38;12.02;;;15.00;99.90;;;;;;4956279;28;20052;-74
2023/10/01 06:51:43;;;;;;;29.80;14.30;;;15.00;99.90;;;;;;4938700;29;20099;-74
2023/10/01 06:54:29;;;;;;;25.08;12.90;;;15.00;99.90;;;;;;4926361;29;20055;-77
2023/10/01 06:57:21;;;;;;;29.33;14.20;;;15.00;99.90;;;;;;4938998;29;20059;-79
2023/10/01 07:00:17;;;;;;;23.90;11.95;;;15.00;99.90;;;;;;4941268;29;20059;-78
2023/10/01 07:03:22;;;;;;;25.33;12.60;;;15.00;99.90;;;;;;4938583;29;20451;-76
2023/10/01 07:06:08;;;;;;;31.25;13.40;;;15.00;99.90;;;;;;4928532;29;20146;-75
2023/10/01 07:08:55;;;;;;;29.85;11.63;;;15.00;99.90;;;;;;4938873;29;20609;-75
2023/10/01 07:11:41;;;;;;;27.35;12.60;;;15.10;99.90;;;;;;4955491;29;20074;-74
2023/10/01 07:14:44;;;;;;;28.40;11.65;;;15.10;99.90;;;;;;4954512;28;20090;-75
2023/10/01 07:17:31;;;;;;;27.42;11.43;;;15.10;99.90;;;;;;4955633;28;20137;-76
2023/10/01 07:20:24;;;;;;;28.67;11.55;;;15.20;99.90;;;;;;4938021;29;20058;-81
2023/10/01 07:23:13;;;;;;;20.80;11.20;;;15.20;99.90;;;;;;4938022;29;20055;-82
2023/10/01 07:26:03;;;;;;;32.15;11.80;;;15.20;99.90;;;;;;4938003;29;20057;-79
2023/10/01 07:28:55;;;;;;;27.33;12.25;;;15.20;99.90;;;;;;4925748;29;20051;-80
2023/10/01 07:31:43;;;;;;;24.70;11.02;;;15.20;99.90;;;;;;4938265;29;20074;-84
2023/10/01 07:34:31;;;;;;;28.00;11.40;;;15.20;99.90;;;;;;4938004;29;20058;-82
2023/10/01 07:37:25;;;;;;;32.38;11.15;;;15.20;99.90;;;;;;4937544;29;20086;-82
2023/10/01 07:40:17;;;;;;;23.92;10.25;;;15.20;99.90;;;;;;4923580;29;20102;-86
2023/10/01 07:43:03;;;;;;;31.63;11.50;;;15.20;99.90;;;;;;4937982;29;20066;-87
2023/10/01 07:45:55;;;;;;;30.80;10.68;;;15.20;99.90;;;;;;4924823;29;20061;-85
2023/10/01 07:48:48;;;;;;;22.20;10.70;;;15.20;99.90;;;;;;4937447;29;20101;-83
2023/10/01 07:51:38;;;;;;;27.13;11.77;;;15.20;99.90;;;;;;4937493;29;20483;-78
2023/10/01 07:54:28;;;;;;;28.30;11.15;;;15.20;99.90;;;;;;4937146;29;20554;-82
2023/10/01 07:57:27;;;;;;;25.00;9.02;;;15.20;99.90;;;;;;4923696;29;20055;-84
2023/10/01 08:00:26;;;;;;;24.63;10.02;;;15.30;99.90;;;;;;4937597;29;20059;-85
2023/10/01 08:06:16;;;;;;;26.23;8.85;;;15.40;99.90;;;;;;4937227;29;20097;-85
2023/10/01 08:09:08;;;;;;;24.40;8.88;;;15.40;99.90;;;;;;4939765;29;20499;-79
2023/10/01 08:12:06;;;;;;;25.88;8.60;;;15.50;99.90;;;;;;4937390;29;20059;-73
2023/10/01 08:15:15;;;;;;;26.40;9.98;;;15.50;99.90;;;;;;4936910;29;20565;-83
2023/10/01 08:21:15;;;;;;;20.65;10.18;;;15.60;99.90;;;;;;4936739;29;20058;-83
2023/10/01 08:24:09;;;;;;;19.52;8.65;;;15.60;99.90;;;;;;4937104;29;20639;-80
2023/10/01 08:26:58;;;;;;;21.50;8.27;;;15.60;99.90;;;;;;4922149;29;20082;-74
2023/10/01 08:30:17;;;;;;;22.17;10.18;;;15.60;99.90;;;;;;4936847;29;20058;-82
2023/10/01 08:33:18;;;;;;;19.58;8.48;;;15.60;99.90;;;;;;4936952;29;20469;-80
2023/10/01 08:36:13;;;;;;;19.30;8.68;;;15.70;99.90;;;;;;4922941;29;20065;-77
2023/10/01 08:42:08;;;;;;;24.53;9.07;;;15.80;99.90;;;;;;4936921;29;20078;-75
2023/10/01 08:45:03;;;;;;;21.00;8.00;;;15.80;99.90;;;;;;4937123;29;20138;-80
2023/10/01 08:47:49;;;;;;;22.33;8.77;;;15.90;99.90;;;;;;4922931;29;20133;-82
2023/10/01 08:50:40;;;;;;;18.05;8.77;;;15.90;99.90;;;;;;4935540;29;20055;-76
2023/10/01 08:53:27;;;;;;;21.05;8.02;;;16.00;99.90;;;;;;4936757;29;20055;-73
2023/10/01 08:56:32;;;;;;;22.55;7.88;;;16.10;99.90;;;;;;4922474;29;20099;-79
2023/10/01 08:59:25;;;;;;;20.73;7.55;;;16.20;99.90;;;;;;4936555;29;20129;-83
2023/10/01 09:02:16;;;;;;;22.05;8.40;;;16.30;99.90;;;;;;4953612;28;20122;-79
2023/10/01 09:05:08;;;;;;;19.95;8.00;;;16.50;99.90;;;;;;4936724;29;20110;-80
2023/10/01 09:11:12;;;;;;;16.60;7.88;;;16.80;99.90;;;;;;4925605;29;20096;-73
2023/10/01 09:14:14;;;;;;;25.73;8.40;;;16.90;99.90;;;;;;4923108;29;20493;-82
2023/10/01 09:17:25;;;;;;;21.90;9.30;;;16.90;99.90;;;;;;4935943;29;20066;-75
2023/10/01 09:20:17;;;;;;;25.55;8.60;;;16.90;99.90;;;;;;4935812;28;20507;-79
2023/10/01 09:23:03;;;;;;;24.42;8.10;;;17.10;99.90;;;;;;4936037;29;20058;-75
2023/10/01 09:25:59;;;;;;;20.65;7.57;;;17.20;99.90;;;;;;4934889;29;20571;-76
2023/10/01 09:28:47;;;;;;;19.73;7.68;;;17.40;99.90;;;;;;4953192;28;20617;-81
2023/10/01 09:31:52;;;;;;;22.48;8.32;;;17.50;99.90;;;;;;4936208;29;20167;-74
2023/10/01 09:34:53;;;;;;;27.88;9.38;;;17.60;99.90;;;;;;4936306;29;20444;-73
2023/10/01 09:37:52;;;;;;;18.17;8.23;;;17.60;99.90;;;;;;4936873;29;20178;-73
2023/10/01 09:40:41;;;;;;;17.30;7.07;;;17.60;99.90;;;;;;4939215;29;20471;-80
2023/10/01 09:43:30;;;;;;;21.63;8.02;;;17.70;99.90;;;;;;4938982;29;20516;-76
2023/10/01 09:46:16;;;;;;;24.50;9.15;;;17.80;99.90;;;;;;4956747;29;20054;-80
2023/10/01 09:49:03;;;;;;;23.17;8.27;;;17.90;99.90;;;;;;4940164;29;20138;-81
2023/10/01 09:51:52;;;;;;;23.70;9.32;;;18.00;99.90;;;;;;4939857;29;20051;-76
2023/10/01 09:54:45;;;;;;;27.77;9.50;;;18.20;99.90;;;;;;4926215;29;20050;-73
2023/10/01 09:57:37;;;;;;;24.60;8.65;;;18.40;99.90;;;;;;4939922;29;20070;-75
2023/10/01 10:00:39;;;;;;;24.65;8.73;;;18.50;99.90;;;;;;4940342;29;20059;-76
2023/10/01 10:03:36;;;;;;;23.45;9.90;;;18.60;99.90;;;;;;4940547;29;20154;-82
2023/10/01 10:06:25;;;;;;;27.52;9.30;;;18.70;99.90;;;;;;4957010;29;20047;-74
2023/10/01 10:09:25;;;;;;;24.80;8.45;;;18.70;99.90;;;;;;4938873;29;20055;-73
2023/10/01 10:12:14;;;;;;;22.42;7.85;;;18.60;99.90;;;;;;4939192;29;20451;-76
2023/10/01 10:15:00;;;;;;;26.65;8.38;;;18.60;99.90;;;;;;4939891;29;20484;-79
2023/10/01 10:18:15;;;;;;;22.08;7.85;;;18.60;99.90;;;;;;4940025;28;20055;-79
2023/10/01 10:21:05;;;;;;;28.40;9.23;;;18.70;99.90;;;;;;4955931;28;20059;-77
2023/10/01 10:24:01;;;;;;;25.50;9.27;;;18.80;99.90;;;;;;4938300;29;20078;-77
2023/10/01 10:29:59;;;;;;;31.67;10.05;;;18.90;99.90;;;;;;4939141;29;20515;-73
2023/10/01 10:33:29;;;;;;;23.08;8.02;;;19.00;99.90;;;;;;4939149;29;20069;-77
2023/10/01 10:36:50;;;;;;;24.15;8.20;;;19.10;99.90;;;;;;4896784;29;20063;-76
2023/10/01 10:39:45;;;;;;;24.73;8.98;;;19.20;99.90;;;;;;4881144;29;20056;-78
2023/10/01 10:42:35;;;;;;;25.50;9.15;;;19.30;99.90;;;;;;4938845;29;20444;-81
2023/10/01 10:45:21;;;;;;;22.75;8.55;;;19.30;99.90;;;;;;4924404;29;20051;-86
2023/10/01 10:48:08;;;;;;;22.73;7.90;;;19.30;99.90;;;;;;4955907;28;20503;-86
2023/10/01 10:50:57;;;;;;;24.80;9.30;;;19.20;99.90;;;;;;4925153;29;20062;-79
2023/10/01 10:53:44;;;;;;;24.60;8.65;;;19.20;99.90;;;;;;4954255;29;20063;-79
2023/10/01 10:56:39;;;;;;;24.75;8.38;;;19.10;99.90;;;;;;4938730;29;20094;-74
2023/10/01 10:59:28;;;;;;;21.52;8.13;;;19.20;99.90;;;;;;4955833;28;20113;-82
2023/10/01 11:02:17;;;;;;;18.98;8.05;;;19.10;99.90;;;;;;4938589;29;20082;-74
2023/10/01 11:05:06;;;;;;;25.77;9.07;;;19.20;99.90;;;;;;4938363;29;20134;-78
2023/10/01 11:07:58;;;;;;;20.40;8.70;;;19.20;99.90;;;;;;4954180;29;20047;-80
2023/10/01 11:10:47;;;;;;;21.90;8.52;;;19.30;99.90;;;;;;4938517;29;20051;-85
2023/10/01 11:13:45;;;;;;;21.73;8.32;;;19.40;99.90;;;;;;4938983;28;20509;-84
2023/10/01 11:16:44;;;;;;;25.83;8.32;;;19.40;99.90;;;;;;4938654;29;20523;-83
2023/10/01 11:19:35;;;;;;;24.58;9.30;;;19.50;99.90;;;;;;4937630;29;20051;-88
2023/10/01 11:22:22;;;;;;;23.65;8.95;;;19.50;99.90;;;;;;4937110;29;20831;-82
2023/10/01 11:25:12;;;;;;;19.50;8.25;;;19.50;99.90;;;;;;4925511;29;20051;-78
2023/10/01 11:28:08;;;;;;;22.27;9.38;;;19.50;99.90;;;;;;4955095;28;20138;-83
2023/10/01 11:30:57;;;;;;;22.85;8.70;;;19.50;99.90;;;;;;4938304;29;20535;-81
2023/10/01 11:33:47;;;;;;;24.00;8.35;;;19.50;99.90;;;;;;4937657;29;20113;-77
2023/10/01 11:36:38;;;;;;;24.10;8.85;;;19.50;99.90;;;;;;4937656;29;20055;-81
2023/10/01 11:39:38;;;;;;;22.77;8.88;;;19.50;99.90;;;;;;4924339;29;20145;-82
2023/10/01 11:42:28;;;;;;;26.38;8.35;;;19.40;99.90;;;;;;4938009;29;20055;-78
2023/10/01 11:45:31;;;;;;;22.95;8.30;;;19.30;99.90;;;;;;4923930;29;20061;-78
2023/10/01 11:48:31;;;;;;;22.77;8.35;;;19.30;99.90;;;;;;4937685;29;20066;-73
2023/10/01 11:51:30;;;;;;;21.92;8.50;;;19.30;99.90;;;;;;4953998;29;20083;-76
2023/10/01 11:54:43;;;;;;;19.40;7.88;;;19.30;99.90;;;;;;4954628;28;20090;-79
2023/10/01 11:57:31;;;;;;;24.02;8.73;;;19.40;99.90;;;;;;4923951;29;20070;-77
2023/10/01 12:00:32;;;;;;;20.65;9.10;;;19.40;99.90;;;;;;4937052;29;20051;-77
2023/10/01 12:03:19;;;;;;;18.08;8.27;;;19.40;99.90;;;;;;4922960;29;20059;-82
2023/10/01 12:06:05;;;;;;;26.95;8.70;;;19.40;99.90;;;;;;4923748;29;20138;-74
2023/10/01 12:08:53;;;;;;;25.88;8.95;;;19.50;99.90;;;;;;4952324;29;20058;-77
2023/10/01 12:11:39;;;;;;;25.67;10.18;;;19.60;99.90;;;;;;4953648;29;20415;-75
2023/10/01 12:14:25;;;;;;;24.05;9.43;;;19.70;99.90;;;;;;4924102;29;20055;-76
2023/10/01 12:17:13;;;;;;;21.95;9.13;;;19.70;99.90;;;;;;4923643;29;20059;-76
2023/10/01 12:20:01;;;;;;;25.40;8.93;;;19.70;99.90;;;;;;4936617;28;20051;-74
2023/10/01 12:23:04;;;;;;;25.15;8.88;;;19.80;99.90;;;;;;4936367;29;20051;-77
2023/10/01 12:25:53;;;;;;;25.70;10.20;;;19.90;99.90;;;;;;4936383;29;20090;-78
2023/10/01 12:29:10;;;;;;;22.52;8.68;;;19.90;99.90;;;;;;4936895;29;20439;-75
2023/10/01 12:31:45;;;;;;;24.65;8.75;;;19.90;99.90;;;;;;4952439;29;20070;-77
2023/10/01 12:34:31;;;;;;;21.20;7.47;;;19.90;99.90;;;;;;4936047;29;20051;-76
2023/10/01 12:37:36;;;;;;;24.25;9.43;;;20.00;99.90;;;;;;4923118;29;20062;-78
2023/10/01 12:40:22;;;;;;;24.02;9.05;;;20.00;99.90;;;;;;4936737;29;20423;-77
2023/10/01 12:43:36;;;;;;;24.08;9.68;;;20.00;99.90;;;;;;4952197;29;20051;-72
2023/10/01 12:46:18;;;;;;;25.65;8.63;;;20.00;99.90;;;;;;4935380;29;20508;-75
2023/10/01 12:49:14;;;;;;;27.52;8.48;;;20.10;99.90;;;;;;4922383;29;20079;-71
2023/10/01 12:52:14;;;;;;;27.00;10.20;;;20.30;99.90;;;;;;4935733;29;20095;-77
2023/10/01 12:55:01;;;;;;;21.90;8.70;;;20.50;99.90;;;;;;4923907;29;20047;-79
2023/10/01 12:57:47;;;;;;;28.45;9.23;;;20.70;99.90;;;;;;4936544;29;20456;-79
2023/10/01 13:00:46;;;;;;;22.08;8.13;;;20.80;99.90;;;;;;4952000;29;20066;-74
2023/10/01 13:03:35;;;;;;;19.20;6.90;;;20.80;99.90;;;;;;4923158;29;20570;-80
2023/10/01 13:06:21;;;;;;;20.13;7.75;;;20.80;99.90;;;;;;4936440;29;20174;-76
2023/10/01 13:09:34;;;;;;;27.25;8.55;;;20.90;99.90;;;;;;4951937;29;20489;-74
2023/10/01 13:12:16;;;;;;;22.83;7.78;;;20.90;99.90;;;;;;4936078;29;20063;-79
2023/10/01 13:15:17;;;;;;;24.75;9.18;;;20.90;99.90;;;;;;4936247;29;20055;-81
2023/10/01 13:18:11;;;;;;;21.95;9.93;;;21.00;99.90;;;;;;4935862;29;20055;-76
2023/10/01 13:20:59;;;;;;;20.70;8.65;;;21.30;99.90;;;;;;4936013;29;20484;-82
2023/10/01 13:23:45;;;;;;;20.20;7.28;;;21.30;99.90;;;;;;4953472;29;20101;-83
2023/10/01 13:26:36;;;;;;;23.05;7.72;;;21.20;99.90;;;;;;4953501;28;20230;-74
2023/10/01 13:29:30;;;;;;;20.38;7.50;;;21.20;99.90;;;;;;4935574;29;20059;-76
2023/10/01 13:32:18;;;;;;;20.93;7.13;;;21.30;99.90;;;;;;4953306;28;20047;-77
2023/10/01 13:35:31;;;;;;;22.30;7.65;;;21.50;99.90;;;;;;4953340;28;20040;-79
2023/10/01 13:38:26;;;;;;;17.27;7.43;;;22.00;99.90;;;;;;4935460;29;20161;-75
2023/10/01 14:08:45;;;;;;;20.23;9.53;;;21.40;99.90;;;;;;4935632;29;20051;-78
2023/10/01 14:11:39;;;;;;;18.55;8.80;;;21.50;99.90;;;;;;4953793;28;20134;-81
2023/10/01 14:14:33;;;;;;;22.90;8.90;;;21.40;99.90;;;;;;4944346;29;20059;-74
2023/10/01 14:17:19;;;;;;;21.75;9.63;;;21.30;99.90;;;;;;4945960;29;20055;-72
2023/10/01 14:20:08;;;;;;;18.80;8.05;;;21.20;99.90;;;;;;4960202;28;20055;-76
2023/10/01 14:23:00;;;;;;;20.60;8.90;;;21.20;99.90;;;;;;4941772;29;20175;-74
2023/10/01 14:25:58;;;;;;;18.88;9.65;;;21.10;99.90;;;;;;4943812;29;20047;-84
2023/10/01 14:28:48;;;;;;;21.08;8.13;;;21.10;99.90;;;;;;4939140;29;20451;-78
2023/10/01 14:31:49;;;;;;;21.88;9.88;;;20.90;99.90;;;;;;4938818;29;20500;-84
2023/10/01 14:34:35;;;;;;;20.17;8.88;;;20.90;99.90;;;;;;4939037;29;20099;-81
2023/10/01 14:37:22;;;;;;;18.08;7.53;;;21.00;99.90;;;;;;4938380;29;20063;-80
2023/10/01 14:40:13;;;;;;;25.15;9.38;;;21.20;99.90;;;;;;4938808;29;20058;-76
2023/10/01 14:42:59;;;;;;;21.88;8.73;;;21.10;99.90;;;;;;4938191;29;20110;-76
2023/10/01 14:45:45;;;;;;;22.08;9.05;;;21.40;99.90;;;;;;4938876;29;20066;-76
2023/10/01 14:48:38;;;;;;;22.73;7.95;;;21.30;99.90;;;;;;4954017;29;20138;-78
2023/10/01 14:51:28;;;;;;;19.23;8.20;;;21.20;99.90;;;;;;4938842;29;20258;-81
2023/10/01 14:54:16;;;;;;;22.13;8.13;;;21.00;99.90;;;;;;4938557;29;20062;-84
2023/10/01 14:57:02;;;;;;;26.45;8.85;;;20.80;99.90;;;;;;4938956;29;20059;-78
2023/10/01 14:59:48;;;;;;;24.70;9.40;;;20.70;99.90;;;;;;4926034;29;20202;-83
2023/10/01 15:02:36;;;;;;;23.63;8.63;;;20.50;99.90;;;;;;4953954;29;20043;-81
2023/10/01 15:05:23;;;;;;;25.30;9.07;;;20.40;99.90;;;;;;4955102;29;20562;-81
2023/10/01 15:08:09;;;;;;;23.10;8.48;;;20.40;99.90;;;;;;4924676;29;20058;-79
2023/10/01 15:10:57;;;;;;;19.77;8.70;;;20.30;99.90;;;;;;4954118;29;20063;-73
2023/10/01 15:13:45;;;;;;;27.40;8.38;;;20.30;99.90;;;;;;4938732;29;20138;-87
2023/10/01 15:16:31;;;;;;;21.42;9.05;;;20.20;99.90;;;;;;4938611;29;20059;-83
2023/10/01 15:19:18;;;;;;;22.52;8.35;;;20.20;99.90;;;;;;4938016;29;20355;-74
2023/10/01 15:22:10;;;;;;;19.83;8.45;;;20.20;99.90;;;;;;4937991;29;20058;-74
2023/10/01 15:24:59;;;;;;;25.60;9.60;;;20.10;99.90;;;;;;4938591;29;20051;-73
2023/10/01 15:27:47;;;;;;;22.27;8.85;;;20.10;99.90;;;;;;4937269;29;20090;-73
2023/10/01 15:30:35;;;;;;;24.67;9.90;;;20.00;99.90;;;;;;4938155;29;20090;-83
2023/10/01 15:33:22;;;;;;;24.25;9.65;;;20.10;99.90;;;;;;4940573;29;20151;-83
2023/10/01 15:36:15;;;;;;;18.90;8.35;;;20.10;99.90;;;;;;4937122;29;20534;-77
2023/10/01 15:39:14;;;;;;;24.25;9.25;;;20.10;99.90;;;;;;4925155;29;20530;-79
2023/10/01 15:42:09;;;;;;;21.98;9.77;;;20.10;99.90;;;;;;4937984;29;20059;-75
2023/10/01 15:44:59;;;;;;;21.55;9.30;;;20.00;99.90;;;;;;4923739;29;20151;-74
2023/10/01 15:47:46;;;;;;;26.10;9.38;;;20.00;99.90;;;;;;4955223;28;20055;-79
2023/10/01 15:50:38;;;;;;;24.20;9.93;;;20.00;99.90;;;;;;4954652;29;20054;-80